sensor_id;sensor_type;location;lat;lon;timestamp;P1;durP1;ratioP1;P2;durP2;ratioP2
25639;SDS011;13497;48.322;16.204;2024-01-06T00:01:28;21.45;;;13.52;;
25639;SDS011;13497;48.322;16.204;2024-01-06T00:03:55;14.93;;;11.07;;
25639;SDS011;13497;48.322;16.204;2024-01-06T00:06:20;19.30;;;17.40;;
25639;SDS011;13497;48.322;16.204;2024-01-06T00:08:46;23.15;;;19.20;;
25639;SDS011;13497;48.322;16.204;2024-01-06T00:11:18;21.33;;;18.95;;
25639;SDS011;13497;48.322;16.204;2024-01-06T00:13:47;19.92;;;13.20;;
25639;SDS011;13497;48.322;16.204;2024-01-06T00:16:16;33.10;;;28.65;;
25639;SDS011;13497;48.322;16.204;2024-01-06T00:18:43;28.50;;;23.48;;
25639;SDS011;13497;48.322;16.204;2024-01-06T00:21:08;35.22;;;28.85;;
25639;SDS011;13497;48.322;16.204;2024-01-06T00:23:34;30.73;;;24.95;;
25639;SDS011;13497;48.322;16.204;2024-01-06T00:26:00;23.60;;;20.95;;
25639;SDS011;13497;48.322;16.204;2024-01-06T00:28:26;25.98;;;23.25;;
25639;SDS011;13497;48.322;16.204;2024-01-06T00:30:51;30.23;;;27.27;;
25639;SDS011;13497;48.322;16.204;2024-01-06T00:33:17;31.33;;;24.30;;
25639;SDS011;13497;48.322;16.204;2024-01-06T00:35:42;25.23;;;20.15;;
25639;SDS011;13497;48.322;16.204;2024-01-06T00:38:08;28.42;;;24.88;;
25639;SDS011;13497;48.322;16.204;2024-01-06T00:40:34;28.17;;;25.15;;
25639;SDS011;13497;48.322;16.204;2024-01-06T00:43:00;26.50;;;23.83;;
25639;SDS011;13497;48.322;16.204;2024-01-06T00:45:25;27.58;;;24.88;;
25639;SDS011;13497;48.322;16.204;2024-01-06T00:47:51;34.33;;;28.02;;
25639;SDS011;13497;48.322;16.204;2024-01-06T00:50:20;75.38;;;61.75;;
25639;SDS011;13497;48.322;16.204;2024-01-06T00:52:46;65.78;;;50.08;;
25639;SDS011;13497;48.322;16.204;2024-01-06T00:55:11;44.42;;;33.33;;
25639;SDS011;13497;48.322;16.204;2024-01-06T00:57:37;34.28;;;27.63;;
25639;SDS011;13497;48.322;16.204;2024-01-06T01:00:04;28.58;;;17.25;;
25639;SDS011;13497;48.322;16.204;2024-01-06T01:02:30;31.20;;;26.80;;
25639;SDS011;13497;48.322;16.204;2024-01-06T01:04:56;28.67;;;24.48;;
25639;SDS011;13497;48.322;16.204;2024-01-06T01:07:23;35.13;;;25.90;;
25639;SDS011;13497;48.322;16.204;2024-01-06T01:09:49;31.63;;;25.05;;
25639;SDS011;13497;48.322;16.204;2024-01-06T01:12:15;31.38;;;27.02;;
25639;SDS011;13497;48.322;16.204;2024-01-06T01:14:41;30.17;;;19.15;;
25639;SDS011;13497;48.322;16.204;2024-01-06T01:17:06;34.05;;;25.98;;
25639;SDS011;13497;48.322;16.204;2024-01-06T01:19:32;26.48;;;19.75;;
25639;SDS011;13497;48.322;16.204;2024-01-06T01:22:00;30.33;;;24.98;;
25639;SDS011;13497;48.322;16.204;2024-01-06T01:24:26;34.60;;;28.23;;
25639;SDS011;13497;48.322;16.204;2024-01-06T01:26:52;32.05;;;28.20;;
25639;SDS011;13497;48.322;16.204;2024-01-06T01:29:17;33.08;;;27.55;;
25639;SDS011;13497;48.322;16.204;2024-01-06T01:31:45;53.80;;;41.45;;
25639;SDS011;13497;48.322;16.204;2024-01-06T01:34:12;35.45;;;31.02;;
25639;SDS011;13497;48.322;16.204;2024-01-06T01:36:37;30.25;;;25.08;;
25639;SDS011;13497;48.322;16.204;2024-01-06T01:39:03;38.38;;;31.50;;
25639;SDS011;13497;48.322;16.204;2024-01-06T01:41:29;31.77;;;28.35;;
25639;SDS011;13497;48.322;16.204;2024-01-06T01:43:54;28.90;;;25.95;;
25639;SDS011;13497;48.322;16.204;2024-01-06T01:46:30;27.13;;;24.23;;
25639;SDS011;13497;48.322;16.204;2024-01-06T01:48:56;28.20;;;25.30;;
25639;SDS011;13497;48.322;16.204;2024-01-06T01:51:27;30.92;;;25.27;;
25639;SDS011;13497;48.322;16.204;2024-01-06T01:53:54;24.90;;;22.15;;
25639;SDS011;13497;48.322;16.204;2024-01-06T01:56:21;26.42;;;23.75;;
25639;SDS011;13497;48.322;16.204;2024-01-06T01:58:47;26.17;;;23.50;;
25639;SDS011;13497;48.322;16.204;2024-01-06T02:01:13;34.00;;;25.90;;
25639;SDS011;13497;48.322;16.204;2024-01-06T02:03:43;32.25;;;28.67;;
25639;SDS011;13497;48.322;16.204;2024-01-06T02:06:08;35.20;;;27.02;;
25639;SDS011;13497;48.322;16.204;2024-01-06T02:08:35;29.90;;;25.42;;
25639;SDS011;13497;48.322;16.204;2024-01-06T02:11:00;30.85;;;27.77;;
25639;SDS011;13497;48.322;16.204;2024-01-06T02:13:36;26.88;;;23.98;;
25639;SDS011;13497;48.322;16.204;2024-01-06T02:16:02;29.00;;;26.00;;
25639;SDS011;13497;48.322;16.204;2024-01-06T02:18:30;27.25;;;24.52;;
25639;SDS011;13497;48.322;16.204;2024-01-06T02:21:00;26.85;;;23.77;;
25639;SDS011;13497;48.322;16.204;2024-01-06T02:23:27;27.05;;;24.25;;
25639;SDS011;13497;48.322;16.204;2024-01-06T02:28:19;25.25;;;21.45;;
25639;SDS011;13497;48.322;16.204;2024-01-06T02:30:45;29.67;;;25.75;;
25639;SDS011;13497;48.322;16.204;2024-01-06T02:33:11;25.50;;;22.17;;
25639;SDS011;13497;48.322;16.204;2024-01-06T02:35:37;26.52;;;23.67;;
25639;SDS011;13497;48.322;16.204;2024-01-06T02:38:02;27.48;;;24.50;;
25639;SDS011;13497;48.322;16.204;2024-01-06T02:40:28;33.47;;;24.15;;
25639;SDS011;13497;48.322;16.204;2024-01-06T02:42:54;31.13;;;26.15;;
25639;SDS011;13497;48.322;16.204;2024-01-06T02:45:20;30.48;;;26.95;;
25639;SDS011;13497;48.322;16.204;2024-01-06T02:47:45;32.60;;;29.55;;
25639;SDS011;13497;48.322;16.204;2024-01-06T02:50:11;30.67;;;25.02;;
25639;SDS011;13497;48.322;16.204;2024-01-06T02:52:37;34.55;;;25.92;;
25639;SDS011;13497;48.322;16.204;2024-01-06T02:55:03;32.95;;;19.30;;
25639;SDS011;13497;48.322;16.204;2024-01-06T02:57:29;31.85;;;25.17;;
25639;SDS011;13497;48.322;16.204;2024-01-06T02:59:55;30.63;;;22.98;;
25639;SDS011;13497;48.322;16.204;2024-01-06T03:02:21;27.52;;;22.85;;
25639;SDS011;13497;48.322;16.204;2024-01-06T03:04:46;28.02;;;25.08;;
25639;SDS011;13497;48.322;16.204;2024-01-06T03:07:12;30.90;;;26.20;;
25639;SDS011;13497;48.322;16.204;2024-01-06T03:09:38;33.40;;;25.80;;
25639;SDS011;13497;48.322;16.204;2024-01-06T03:12:04;31.85;;;25.33;;
25639;SDS011;13497;48.322;16.204;2024-01-06T03:14:36;33.22;;;27.95;;
25639;SDS011;13497;48.322;16.204;2024-01-06T03:17:02;29.52;;;26.40;;
25639;SDS011;13497;48.322;16.204;2024-01-06T03:19:29;31.95;;;27.13;;
25639;SDS011;13497;48.322;16.204;2024-01-06T03:21:58;30.52;;;25.83;;
25639;SDS011;13497;48.322;16.204;2024-01-06T03:24:25;30.98;;;27.25;;
25639;SDS011;13497;48.322;16.204;2024-01-06T03:26:51;41.55;;;32.80;;
25639;SDS011;13497;48.322;16.204;2024-01-06T03:29:17;32.85;;;28.80;;
25639;SDS011;13497;48.322;16.204;2024-01-06T03:31:43;41.55;;;30.52;;
25639;SDS011;13497;48.322;16.204;2024-01-06T03:34:09;35.78;;;28.48;;
25639;SDS011;13497;48.322;16.204;2024-01-06T03:36:38;32.08;;;28.50;;
25639;SDS011;13497;48.322;16.204;2024-01-06T03:39:04;31.30;;;25.55;;
25639;SDS011;13497;48.322;16.204;2024-01-06T03:41:30;27.00;;;24.20;;
25639;SDS011;13497;48.322;16.204;2024-01-06T03:43:56;27.98;;;25.20;;
25639;SDS011;13497;48.322;16.204;2024-01-06T03:46:22;45.45;;;34.88;;
25639;SDS011;13497;48.322;16.204;2024-01-06T03:48:48;32.65;;;29.20;;
25639;SDS011;13497;48.322;16.204;2024-01-06T03:51:14;56.47;;;42.47;;
25639;SDS011;13497;48.322;16.204;2024-01-06T03:53:39;56.03;;;37.70;;
25639;SDS011;13497;48.322;16.204;2024-01-06T03:56:05;36.42;;;28.77;;
25639;SDS011;13497;48.322;16.204;2024-01-06T03:58:31;33.45;;;29.77;;
25639;SDS011;13497;48.322;16.204;2024-01-06T04:00:57;30.30;;;25.92;;
25639;SDS011;13497;48.322;16.204;2024-01-06T04:03:23;27.95;;;25.27;;
25639;SDS011;13497;48.322;16.204;2024-01-06T04:05:49;34.10;;;28.23;;
25639;SDS011;13497;48.322;16.204;2024-01-06T04:08:14;25.27;;;22.67;;
25639;SDS011;13497;48.322;16.204;2024-01-06T04:10:40;29.40;;;26.35;;
25639;SDS011;13497;48.322;16.204;2024-01-06T04:13:07;28.95;;;26.15;;
25639;SDS011;13497;48.322;16.204;2024-01-06T04:15:32;26.23;;;23.25;;
25639;SDS011;13497;48.322;16.204;2024-01-06T04:18:01;30.33;;;21.30;;
25639;SDS011;13497;48.322;16.204;2024-01-06T04:20:28;28.10;;;25.30;;
25639;SDS011;13497;48.322;16.204;2024-01-06T04:22:54;27.60;;;24.27;;
25639;SDS011;13497;48.322;16.204;2024-01-06T04:25:19;27.20;;;24.38;;
25639;SDS011;13497;48.322;16.204;2024-01-06T04:27:46;32.80;;;29.55;;
25639;SDS011;13497;48.322;16.204;2024-01-06T04:30:13;23.40;;;18.40;;
25639;SDS011;13497;48.322;16.204;2024-01-06T04:32:40;32.17;;;28.08;;
25639;SDS011;13497;48.322;16.204;2024-01-06T04:35:06;28.73;;;24.42;;
25639;SDS011;13497;48.322;16.204;2024-01-06T04:37:32;26.20;;;22.95;;
25639;SDS011;13497;48.322;16.204;2024-01-06T04:39:57;25.92;;;23.27;;
25639;SDS011;13497;48.322;16.204;2024-01-06T04:42:23;30.40;;;27.17;;
25639;SDS011;13497;48.322;16.204;2024-01-06T04:44:50;24.58;;;18.00;;
25639;SDS011;13497;48.322;16.204;2024-01-06T04:47:16;29.98;;;27.05;;
25639;SDS011;13497;48.322;16.204;2024-01-06T04:49:42;30.60;;;27.52;;
25639;SDS011;13497;48.322;16.204;2024-01-06T04:52:09;29.17;;;23.27;;
25639;SDS011;13497;48.322;16.204;2024-01-06T04:54:35;24.13;;;21.27;;
25639;SDS011;13497;48.322;16.204;2024-01-06T04:57:00;25.83;;;23.27;;
25639;SDS011;13497;48.322;16.204;2024-01-06T04:59:26;27.08;;;20.38;;
25639;SDS011;13497;48.322;16.204;2024-01-06T05:01:52;28.17;;;25.73;;
25639;SDS011;13497;48.322;16.204;2024-01-06T05:04:19;27.77;;;24.77;;
25639;SDS011;13497;48.322;16.204;2024-01-06T05:06:44;31.52;;;24.58;;
25639;SDS011;13497;48.322;16.204;2024-01-06T05:09:10;28.55;;;25.90;;
25639;SDS011;13497;48.322;16.204;2024-01-06T05:11:36;25.70;;;23.10;;
25639;SDS011;13497;48.322;16.204;2024-01-06T05:14:02;28.08;;;23.83;;
25639;SDS011;13497;48.322;16.204;2024-01-06T05:16:27;29.90;;;26.23;;
25639;SDS011;13497;48.322;16.204;2024-01-06T05:18:53;27.77;;;22.45;;
25639;SDS011;13497;48.322;16.204;2024-01-06T05:21:19;28.65;;;24.85;;
25639;SDS011;13497;48.322;16.204;2024-01-06T05:23:45;25.35;;;22.88;;
25639;SDS011;13497;48.322;16.204;2024-01-06T05:26:11;34.88;;;26.20;;
25639;SDS011;13497;48.322;16.204;2024-01-06T05:28:38;32.92;;;29.13;;
25639;SDS011;13497;48.322;16.204;2024-01-06T05:31:04;23.38;;;18.98;;
25639;SDS011;13497;48.322;16.204;2024-01-06T05:33:30;25.95;;;23.48;;
25639;SDS011;13497;48.322;16.204;2024-01-06T05:35:56;24.15;;;21.90;;
25639;SDS011;13497;48.322;16.204;2024-01-06T05:38:21;26.02;;;22.88;;
25639;SDS011;13497;48.322;16.204;2024-01-06T05:40:47;28.63;;;22.52;;
25639;SDS011;13497;48.322;16.204;2024-01-06T05:43:13;25.15;;;22.65;;
25639;SDS011;13497;48.322;16.204;2024-01-06T05:45:38;28.63;;;25.73;;
25639;SDS011;13497;48.322;16.204;2024-01-06T05:48:10;26.20;;;23.55;;
25639;SDS011;13497;48.322;16.204;2024-01-06T05:50:39;24.67;;;22.30;;
25639;SDS011;13497;48.322;16.204;2024-01-06T05:53:05;26.90;;;24.23;;
25639;SDS011;13497;48.322;16.204;2024-01-06T05:55:32;25.80;;;22.77;;
25639;SDS011;13497;48.322;16.204;2024-01-06T05:57:57;30.45;;;26.73;;
25639;SDS011;13497;48.322;16.204;2024-01-06T06:00:23;28.75;;;25.83;;
25639;SDS011;13497;48.322;16.204;2024-01-06T06:02:49;24.92;;;22.30;;
25639;SDS011;13497;48.322;16.204;2024-01-06T06:05:14;25.83;;;23.05;;
25639;SDS011;13497;48.322;16.204;2024-01-06T06:07:40;26.02;;;23.63;;
25639;SDS011;13497;48.322;16.204;2024-01-06T06:10:07;27.77;;;25.10;;
25639;SDS011;13497;48.322;16.204;2024-01-06T06:15:00;26.80;;;24.02;;
25639;SDS011;13497;48.322;16.204;2024-01-06T06:17:26;32.45;;;28.70;;
25639;SDS011;13497;48.322;16.204;2024-01-06T06:19:51;27.83;;;25.08;;
25639;SDS011;13497;48.322;16.204;2024-01-06T06:22:17;28.45;;;25.52;;
25639;SDS011;13497;48.322;16.204;2024-01-06T06:24:43;26.35;;;23.60;;
25639;SDS011;13497;48.322;16.204;2024-01-06T06:27:11;27.38;;;24.52;;
25639;SDS011;13497;48.322;16.204;2024-01-06T06:29:37;27.02;;;24.42;;
25639;SDS011;13497;48.322;16.204;2024-01-06T06:32:03;24.08;;;21.52;;
25639;SDS011;13497;48.322;16.204;2024-01-06T06:34:28;26.05;;;22.95;;
25639;SDS011;13497;48.322;16.204;2024-01-06T06:36:54;29.52;;;26.52;;
25639;SDS011;13497;48.322;16.204;2024-01-06T06:39:20;31.42;;;28.23;;
25639;SDS011;13497;48.322;16.204;2024-01-06T06:41:45;30.48;;;27.48;;
25639;SDS011;13497;48.322;16.204;2024-01-06T06:44:11;29.30;;;26.27;;
25639;SDS011;13497;48.322;16.204;2024-01-06T06:46:37;27.63;;;24.90;;
25639;SDS011;13497;48.322;16.204;2024-01-06T06:49:02;21.88;;;16.92;;
25639;SDS011;13497;48.322;16.204;2024-01-06T06:51:28;29.88;;;26.85;;
25639;SDS011;13497;48.322;16.204;2024-01-06T06:53:55;31.80;;;25.90;;
25639;SDS011;13497;48.322;16.204;2024-01-06T06:56:21;27.73;;;24.98;;
25639;SDS011;13497;48.322;16.204;2024-01-06T06:58:47;28.55;;;25.75;;
25639;SDS011;13497;48.322;16.204;2024-01-06T07:01:14;25.85;;;23.33;;
25639;SDS011;13497;48.322;16.204;2024-01-06T07:03:41;29.02;;;23.92;;
25639;SDS011;13497;48.322;16.204;2024-01-06T07:06:07;25.75;;;17.33;;
25639;SDS011;13497;48.322;16.204;2024-01-06T07:08:32;28.40;;;25.08;;
25639;SDS011;13497;48.322;16.204;2024-01-06T07:10:58;28.75;;;25.80;;
25639;SDS011;13497;48.322;16.204;2024-01-06T07:13:24;28.95;;;25.95;;
25639;SDS011;13497;48.322;16.204;2024-01-06T07:15:51;27.10;;;24.35;;
25639;SDS011;13497;48.322;16.204;2024-01-06T07:18:17;25.05;;;21.92;;
25639;SDS011;13497;48.322;16.204;2024-01-06T07:20:44;31.00;;;26.88;;
25639;SDS011;13497;48.322;16.204;2024-01-06T07:23:09;28.63;;;25.83;;
25639;SDS011;13497;48.322;16.204;2024-01-06T07:25:35;27.02;;;24.33;;
25639;SDS011;13497;48.322;16.204;2024-01-06T07:28:01;28.13;;;25.15;;
25639;SDS011;13497;48.322;16.204;2024-01-06T07:30:27;27.60;;;19.67;;
25639;SDS011;13497;48.322;16.204;2024-01-06T07:32:53;25.65;;;23.23;;
25639;SDS011;13497;48.322;16.204;2024-01-06T07:35:18;27.75;;;24.88;;
25639;SDS011;13497;48.322;16.204;2024-01-06T07:37:44;26.60;;;23.85;;
25639;SDS011;13497;48.322;16.204;2024-01-06T07:40:10;27.25;;;24.13;;
25639;SDS011;13497;48.322;16.204;2024-01-06T07:42:41;31.40;;;27.80;;
25639;SDS011;13497;48.322;16.204;2024-01-06T07:45:07;28.35;;;25.45;;
25639;SDS011;13497;48.322;16.204;2024-01-06T07:47:33;27.02;;;19.52;;
25639;SDS011;13497;48.322;16.204;2024-01-06T07:49:59;31.25;;;28.10;;
25639;SDS011;13497;48.322;16.204;2024-01-06T07:52:24;28.35;;;25.40;;
25639;SDS011;13497;48.322;16.204;2024-01-06T07:54:50;36.63;;;27.75;;
25639;SDS011;13497;48.322;16.204;2024-01-06T07:57:16;30.70;;;27.50;;
25639;SDS011;13497;48.322;16.204;2024-01-06T07:59:42;31.58;;;27.20;;
25639;SDS011;13497;48.322;16.204;2024-01-06T08:02:08;28.42;;;25.42;;
25639;SDS011;13497;48.322;16.204;2024-01-06T08:04:34;32.83;;;29.33;;
25639;SDS011;13497;48.322;16.204;2024-01-06T08:06:59;35.72;;;32.10;;
25639;SDS011;13497;48.322;16.204;2024-01-06T08:09:25;32.35;;;28.92;;
25639;SDS011;13497;48.322;16.204;2024-01-06T08:11:51;29.63;;;26.30;;
25639;SDS011;13497;48.322;16.204;2024-01-06T08:14:16;30.85;;;27.52;;
25639;SDS011;13497;48.322;16.204;2024-01-06T08:16:42;35.90;;;32.47;;
25639;SDS011;13497;48.322;16.204;2024-01-06T08:19:08;29.55;;;26.55;;
25639;SDS011;13497;48.322;16.204;2024-01-06T08:21:34;31.58;;;28.52;;
25639;SDS011;13497;48.322;16.204;2024-01-06T08:24:00;32.35;;;28.98;;
25639;SDS011;13497;48.322;16.204;2024-01-06T08:26:26;30.85;;;26.58;;
25639;SDS011;13497;48.322;16.204;2024-01-06T08:28:51;32.13;;;28.77;;
25639;SDS011;13497;48.322;16.204;2024-01-06T08:31:17;32.67;;;29.08;;
25639;SDS011;13497;48.322;16.204;2024-01-06T08:33:43;31.92;;;28.80;;
25639;SDS011;13497;48.322;16.204;2024-01-06T08:36:09;30.10;;;26.83;;
25639;SDS011;13497;48.322;16.204;2024-01-06T08:38:35;33.97;;;30.20;;
25639;SDS011;13497;48.322;16.204;2024-01-06T08:41:00;38.53;;;31.50;;
25639;SDS011;13497;48.322;16.204;2024-01-06T08:43:27;33.70;;;30.08;;
25639;SDS011;13497;48.322;16.204;2024-01-06T08:45:52;30.45;;;27.23;;
25639;SDS011;13497;48.322;16.204;2024-01-06T08:48:18;30.90;;;26.75;;
25639;SDS011;13497;48.322;16.204;2024-01-06T08:50:44;34.47;;;30.80;;
25639;SDS011;13497;48.322;16.204;2024-01-06T08:53:12;36.85;;;31.17;;
25639;SDS011;13497;48.322;16.204;2024-01-06T08:55:38;32.85;;;29.52;;
25639;SDS011;13497;48.322;16.204;2024-01-06T08:58:04;25.52;;;21.58;;
25639;SDS011;13497;48.322;16.204;2024-01-06T09:00:30;32.13;;;27.67;;
25639;SDS011;13497;48.322;16.204;2024-01-06T09:02:56;89.05;;;63.83;;
25639;SDS011;13497;48.322;16.204;2024-01-06T09:05:21;94.10;;;66.80;;
25639;SDS011;13497;48.322;16.204;2024-01-06T09:07:47;65.32;;;53.38;;
25639;SDS011;13497;48.322;16.204;2024-01-06T09:10:16;42.78;;;38.25;;
25639;SDS011;13497;48.322;16.204;2024-01-06T09:12:42;38.58;;;34.45;;
25639;SDS011;13497;48.322;16.204;2024-01-06T09:15:08;36.65;;;32.85;;
25639;SDS011;13497;48.322;16.204;2024-01-06T09:17:34;38.08;;;34.05;;
25639;SDS011;13497;48.322;16.204;2024-01-06T09:19:59;38.00;;;33.95;;
25639;SDS011;13497;48.322;16.204;2024-01-06T09:22:26;36.83;;;32.97;;
25639;SDS011;13497;48.322;16.204;2024-01-06T09:24:52;32.38;;;25.85;;
25639;SDS011;13497;48.322;16.204;2024-01-06T09:27:18;38.20;;;34.08;;
25639;SDS011;13497;48.322;16.204;2024-01-06T09:29:44;41.70;;;37.38;;
25639;SDS011;13497;48.322;16.204;2024-01-06T09:32:10;40.13;;;35.65;;
25639;SDS011;13497;48.322;16.204;2024-01-06T09:34:35;49.10;;;41.92;;
25639;SDS011;13497;48.322;16.204;2024-01-06T09:37:02;36.22;;;29.13;;
25639;SDS011;13497;48.322;16.204;2024-01-06T09:39:28;49.17;;;39.40;;
25639;SDS011;13497;48.322;16.204;2024-01-06T09:41:55;47.05;;;42.28;;
25639;SDS011;13497;48.322;16.204;2024-01-06T09:44:21;42.47;;;38.10;;
25639;SDS011;13497;48.322;16.204;2024-01-06T09:46:47;35.15;;;31.42;;
25639;SDS011;13497;48.322;16.204;2024-01-06T09:49:14;34.05;;;30.50;;
25639;SDS011;13497;48.322;16.204;2024-01-06T09:51:40;37.85;;;33.10;;
25639;SDS011;13497;48.322;16.204;2024-01-06T09:54:10;32.50;;;29.17;;
25639;SDS011;13497;48.322;16.204;2024-01-06T09:56:38;36.83;;;33.35;;
25639;SDS011;13497;48.322;16.204;2024-01-06T09:59:05;31.08;;;27.77;;
25639;SDS011;13497;48.322;16.204;2024-01-06T10:01:30;24.92;;;18.95;;
25639;SDS011;13497;48.322;16.204;2024-01-06T10:03:56;29.90;;;21.15;;
25639;SDS011;13497;48.322;16.204;2024-01-06T10:06:21;29.17;;;26.08;;
25639;SDS011;13497;48.322;16.204;2024-01-06T10:08:51;33.13;;;29.85;;
25639;SDS011;13497;48.322;16.204;2024-01-06T10:11:18;33.67;;;30.02;;
25639;SDS011;13497;48.322;16.204;2024-01-06T10:13:46;30.05;;;26.05;;
25639;SDS011;13497;48.322;16.204;2024-01-06T10:16:14;29.52;;;26.50;;
25639;SDS011;13497;48.322;16.204;2024-01-06T10:18:40;31.98;;;28.75;;
25639;SDS011;13497;48.322;16.204;2024-01-06T10:21:06;30.77;;;26.25;;
25639;SDS011;13497;48.322;16.204;2024-01-06T10:23:32;33.13;;;26.98;;
25639;SDS011;13497;48.322;16.204;2024-01-06T10:25:58;44.38;;;36.33;;
25639;SDS011;13497;48.322;16.204;2024-01-06T10:28:24;35.85;;;32.00;;
25639;SDS011;13497;48.322;16.204;2024-01-06T10:30:54;59.95;;;44.90;;
25639;SDS011;13497;48.322;16.204;2024-01-06T10:33:21;53.97;;;35.40;;
25639;SDS011;13497;48.322;16.204;2024-01-06T10:35:47;41.20;;;32.28;;
25639;SDS011;13497;48.322;16.204;2024-01-06T10:38:17;31.27;;;28.02;;
25639;SDS011;13497;48.322;16.204;2024-01-06T10:40:59;39.15;;;34.97;;
25639;SDS011;13497;48.322;16.204;2024-01-06T10:43:31;32.33;;;29.10;;
25639;SDS011;13497;48.322;16.204;2024-01-06T10:46:06;29.73;;;26.67;;
25639;SDS011;13497;48.322;16.204;2024-01-06T10:48:35;30.90;;;27.80;;
25639;SDS011;13497;48.322;16.204;2024-01-06T10:51:10;30.58;;;26.27;;
25639;SDS011;13497;48.322;16.204;2024-01-06T10:56:04;25.38;;;22.77;;
25639;SDS011;13497;48.322;16.204;2024-01-06T10:58:32;24.60;;;21.58;;
25639;SDS011;13497;48.322;16.204;2024-01-06T11:01:07;28.05;;;25.10;;
25639;SDS011;13497;48.322;16.204;2024-01-06T11:03:34;26.85;;;24.20;;
25639;SDS011;13497;48.322;16.204;2024-01-06T11:06:02;28.80;;;25.90;;
25639;SDS011;13497;48.322;16.204;2024-01-06T11:08:28;27.73;;;24.80;;
25639;SDS011;13497;48.322;16.204;2024-01-06T11:10:55;30.27;;;27.52;;
25639;SDS011;13497;48.322;16.204;2024-01-06T11:18:30;24.88;;;22.48;;
25639;SDS011;13497;48.322;16.204;2024-01-06T11:26:32;27.17;;;24.38;;
25639;SDS011;13497;48.322;16.204;2024-01-06T11:28:58;26.83;;;24.00;;
25639;SDS011;13497;48.322;16.204;2024-01-06T11:31:31;29.15;;;26.38;;
25639;SDS011;13497;48.322;16.204;2024-01-06T11:33:57;30.30;;;27.13;;
25639;SDS011;13497;48.322;16.204;2024-01-06T11:36:49;25.60;;;23.23;;
25639;SDS011;13497;48.322;16.204;2024-01-06T11:39:34;24.15;;;21.55;;
25639;SDS011;13497;48.322;16.204;2024-01-06T11:42:05;26.98;;;24.10;;
25639;SDS011;13497;48.322;16.204;2024-01-06T11:44:43;26.27;;;23.75;;
25639;SDS011;13497;48.322;16.204;2024-01-06T11:47:10;26.95;;;24.25;;
25639;SDS011;13497;48.322;16.204;2024-01-06T11:49:37;21.55;;;17.20;;
25639;SDS011;13497;48.322;16.204;2024-01-06T11:52:03;31.55;;;28.17;;
25639;SDS011;13497;48.322;16.204;2024-01-06T11:54:30;27.52;;;24.75;;
25639;SDS011;13497;48.322;16.204;2024-01-06T11:56:56;29.40;;;26.60;;
25639;SDS011;13497;48.322;16.204;2024-01-06T11:59:22;27.65;;;24.95;;
25639;SDS011;13497;48.322;16.204;2024-01-06T12:01:48;26.85;;;24.45;;
25639;SDS011;13497;48.322;16.204;2024-01-06T12:04:14;23.48;;;20.90;;
25639;SDS011;13497;48.322;16.204;2024-01-06T12:06:40;28.13;;;25.52;;
25639;SDS011;13497;48.322;16.204;2024-01-06T12:09:07;22.38;;;20.27;;
25639;SDS011;13497;48.322;16.204;2024-01-06T12:11:34;25.95;;;23.60;;
25639;SDS011;13497;48.322;16.204;2024-01-06T12:14:00;23.17;;;21.08;;
25639;SDS011;13497;48.322;16.204;2024-01-06T12:16:25;24.08;;;21.95;;
25639;SDS011;13497;48.322;16.204;2024-01-06T12:18:55;15.73;;;14.10;;
25639;SDS011;13497;48.322;16.204;2024-01-06T12:21:25;22.13;;;20.33;;
25639;SDS011;13497;48.322;16.204;2024-01-06T12:24:16;22.80;;;20.60;;
25639;SDS011;13497;48.322;16.204;2024-01-06T12:26:44;21.63;;;19.77;;
25639;SDS011;13497;48.322;16.204;2024-01-06T12:31:36;19.98;;;18.13;;
25639;SDS011;13497;48.322;16.204;2024-01-06T12:34:03;22.90;;;20.77;;
25639;SDS011;13497;48.322;16.204;2024-01-06T12:36:30;20.42;;;18.73;;
25639;SDS011;13497;48.322;16.204;2024-01-06T12:38:57;19.20;;;17.63;;
25639;SDS011;13497;48.322;16.204;2024-01-06T12:41:23;22.77;;;20.67;;
25639;SDS011;13497;48.322;16.204;2024-01-06T12:43:49;23.15;;;21.13;;
25639;SDS011;13497;48.322;16.204;2024-01-06T12:46:15;18.65;;;16.88;;
25639;SDS011;13497;48.322;16.204;2024-01-06T12:48:41;15.50;;;12.13;;
25639;SDS011;13497;48.322;16.204;2024-01-06T12:51:06;21.50;;;19.50;;
25639;SDS011;13497;48.322;16.204;2024-01-06T12:53:32;21.92;;;20.13;;
25639;SDS011;13497;48.322;16.204;2024-01-06T12:55:58;23.13;;;21.00;;
25639;SDS011;13497;48.322;16.204;2024-01-06T12:58:23;22.45;;;20.50;;
25639;SDS011;13497;48.322;16.204;2024-01-06T13:00:49;22.70;;;20.65;;
25639;SDS011;13497;48.322;16.204;2024-01-06T13:03:15;24.80;;;22.60;;
25639;SDS011;13497;48.322;16.204;2024-01-06T13:05:40;19.13;;;17.40;;
25639;SDS011;13497;48.322;16.204;2024-01-06T13:08:06;19.58;;;17.90;;
25639;SDS011;13497;48.322;16.204;2024-01-06T13:10:32;24.85;;;22.52;;
25639;SDS011;13497;48.322;16.204;2024-01-06T13:12:59;24.00;;;22.00;;
25639;SDS011;13497;48.322;16.204;2024-01-06T13:15:28;21.42;;;19.50;;
25639;SDS011;13497;48.322;16.204;2024-01-06T13:17:54;17.23;;;15.43;;
25639;SDS011;13497;48.322;16.204;2024-01-06T13:20:19;21.35;;;19.48;;
25639;SDS011;13497;48.322;16.204;2024-01-06T13:22:45;24.98;;;22.80;;
25639;SDS011;13497;48.322;16.204;2024-01-06T13:25:11;24.25;;;22.20;;
25639;SDS011;13497;48.322;16.204;2024-01-06T13:27:37;14.68;;;12.55;;
25639;SDS011;13497;48.322;16.204;2024-01-06T13:30:03;23.05;;;20.70;;
25639;SDS011;13497;48.322;16.204;2024-01-06T13:32:29;22.42;;;20.40;;
25639;SDS011;13497;48.322;16.204;2024-01-06T13:34:55;21.67;;;19.70;;
25639;SDS011;13497;48.322;16.204;2024-01-06T13:37:29;21.50;;;19.60;;
25639;SDS011;13497;48.322;16.204;2024-01-06T13:39:56;21.52;;;19.73;;
25639;SDS011;13497;48.322;16.204;2024-01-06T13:42:22;22.70;;;20.63;;
25639;SDS011;13497;48.322;16.204;2024-01-06T13:44:47;22.00;;;19.70;;
25639;SDS011;13497;48.322;16.204;2024-01-06T13:47:13;21.55;;;19.48;;
25639;SDS011;13497;48.322;16.204;2024-01-06T13:49:40;22.80;;;20.67;;
25639;SDS011;13497;48.322;16.204;2024-01-06T13:52:06;21.75;;;19.58;;
25639;SDS011;13497;48.322;16.204;2024-01-06T13:54:35;16.73;;;12.77;;
25639;SDS011;13497;48.322;16.204;2024-01-06T13:57:01;22.67;;;20.50;;
25639;SDS011;13497;48.322;16.204;2024-01-06T13:59:27;24.38;;;21.98;;
25639;SDS011;13497;48.322;16.204;2024-01-06T14:01:53;20.45;;;18.60;;
25639;SDS011;13497;48.322;16.204;2024-01-06T14:04:19;24.27;;;22.08;;
25639;SDS011;13497;48.322;16.204;2024-01-06T14:06:45;23.38;;;21.13;;
25639;SDS011;13497;48.322;16.204;2024-01-06T14:09:12;22.67;;;20.60;;
25639;SDS011;13497;48.322;16.204;2024-01-06T14:11:39;16.80;;;14.93;;
25639;SDS011;13497;48.322;16.204;2024-01-06T14:14:04;21.20;;;19.50;;
25639;SDS011;13497;48.322;16.204;2024-01-06T14:16:30;21.77;;;19.58;;
25639;SDS011;13497;48.322;16.204;2024-01-06T14:18:56;26.85;;;24.55;;
25639;SDS011;13497;48.322;16.204;2024-01-06T14:21:22;21.05;;;19.27;;
25639;SDS011;13497;48.322;16.204;2024-01-06T14:23:48;22.98;;;20.77;;
25639;SDS011;13497;48.322;16.204;2024-01-06T14:26:15;23.52;;;21.38;;